createdAt,value
2019-02-19T00:01:10.114Z,21.43
2019-02-19T00:06:12.759Z,21.40
2019-02-19T00:11:15.426Z,21.39
2019-02-19T00:16:18.072Z,21.41
2019-02-19T00:21:20.742Z,21.42
2019-02-19T00:26:23.404Z,21.36
2019-02-19T00:31:26.050Z,21.36
2019-02-19T00:36:28.700Z,21.36
2019-02-19T00:41:31.344Z,21.35
2019-02-19T00:46:33.996Z,21.36
2019-02-19T00:51:36.656Z,21.34
2019-02-19T00:56:39.304Z,21.33
2019-02-19T01:01:41.971Z,21.31
2019-02-19T01:06:44.644Z,21.32
2019-02-19T01:21:51.997Z,21.28
2019-02-19T01:26:54.649Z,21.30
2019-02-19T01:31:57.353Z,21.27
2019-02-19T01:37:00.012Z,21.31
2019-02-19T01:42:02.672Z,21.30
2019-02-19T01:47:05.333Z,21.30
2019-02-19T01:52:08.004Z,21.28
2019-02-19T01:57:10.667Z,21.28
2019-02-19T02:02:13.321Z,21.28
2019-02-19T02:07:15.986Z,21.30
2019-02-19T02:12:18.648Z,21.28
2019-02-19T02:17:21.311Z,21.25
2019-02-19T02:22:23.976Z,21.25
2019-02-19T02:27:26.624Z,21.25
2019-02-19T02:32:29.433Z,21.23
2019-02-19T02:37:32.114Z,21.20
2019-02-19T02:42:34.800Z,21.20
2019-02-19T02:47:37.450Z,21.20
2019-02-19T02:52:40.114Z,21.20
2019-02-19T02:57:42.782Z,21.21
2019-02-19T03:02:45.427Z,21.21
2019-02-19T03:07:49.744Z,21.18
2019-02-19T03:12:52.519Z,21.22
2019-02-19T03:17:55.191Z,21.21
2019-02-19T03:22:57.856Z,21.19
2019-02-19T03:28:00.522Z,21.15
2019-02-19T03:33:03.174Z,21.14
2019-02-19T03:38:05.841Z,21.14
2019-02-19T03:43:08.569Z,21.12
2019-02-19T03:48:11.239Z,21.09
2019-02-19T03:53:13.919Z,21.08
2019-02-19T03:58:16.590Z,21.07
2019-02-19T04:03:19.378Z,21.06
2019-02-19T04:08:22.035Z,21.04
2019-02-19T04:13:24.715Z,21.05
2019-02-19T04:18:27.383Z,21.03
2019-02-19T04:23:30.048Z,21.04
2019-02-19T04:28:32.708Z,21.02
2019-02-19T04:33:35.372Z,21.00
2019-02-19T04:38:38.042Z,20.98
2019-02-19T04:43:40.712Z,21.00
2019-02-19T04:48:43.396Z,20.93
2019-02-19T04:53:46.064Z,20.93
2019-02-19T04:58:48.737Z,20.90
2019-02-19T05:03:51.384Z,20.87
2019-02-19T05:08:54.058Z,20.87
2019-02-19T05:13:56.710Z,20.86
2019-02-19T05:18:59.384Z,20.85
2019-02-19T05:24:02.077Z,20.85
2019-02-19T05:29:04.756Z,20.83
2019-02-19T05:34:07.423Z,20.85
2019-02-19T05:39:10.076Z,20.96
2019-02-19T05:44:12.719Z,21.27
2019-02-19T05:49:15.388Z,21.28
2019-02-19T05:54:18.068Z,21.10
2019-02-19T05:59:20.730Z,21.00
2019-02-19T06:04:23.388Z,20.87
2019-02-19T06:09:26.090Z,20.83
2019-02-19T06:14:28.753Z,20.83
2019-02-19T06:19:31.406Z,20.82
2019-02-19T06:24:34.054Z,20.82
2019-02-19T06:29:36.742Z,20.79
2019-02-19T06:34:39.396Z,20.79
2019-02-19T06:39:42.176Z,20.79
2019-02-19T06:44:44.844Z,20.77
2019-02-19T06:49:47.544Z,20.75
2019-02-19T06:54:50.213Z,20.71
2019-02-19T06:59:52.879Z,20.73
2019-02-19T07:04:55.822Z,20.70
2019-02-19T07:09:58.488Z,20.76
2019-02-19T07:15:01.128Z,20.75
2019-02-19T07:20:04.852Z,20.77
2019-02-19T07:25:11.092Z,20.77
2019-02-19T07:30:13.736Z,20.76
2019-02-19T07:35:16.436Z,20.78
2019-02-19T07:40:19.180Z,20.80
2019-02-19T07:45:21.857Z,20.79
2019-02-19T07:50:24.523Z,20.80
2019-02-19T07:55:27.173Z,20.80
2019-02-19T08:00:29.856Z,20.78
2019-02-19T08:05:32.529Z,20.78
2019-02-19T08:10:35.192Z,20.76
2019-02-19T08:15:37.868Z,20.76
2019-02-19T08:20:40.548Z,20.73
2019-02-19T08:25:43.223Z,20.71
2019-02-19T08:30:45.893Z,20.72
2019-02-19T08:35:48.540Z,20.67
2019-02-19T08:40:51.229Z,20.67
2019-02-19T08:45:53.896Z,20.63
2019-02-19T08:50:56.598Z,20.62
2019-02-19T08:55:59.249Z,20.61
2019-02-19T09:01:01.923Z,20.57
2019-02-19T09:06:04.592Z,20.58
2019-02-19T09:11:07.292Z,20.59
2019-02-19T09:16:09.989Z,20.55
2019-02-19T09:21:12.637Z,20.56
2019-02-19T09:26:15.300Z,20.56
2019-02-19T09:31:17.968Z,20.55
2019-02-19T09:36:20.636Z,20.55
2019-02-19T09:41:23.287Z,20.52
2019-02-19T09:46:25.959Z,20.50
2019-02-19T09:51:28.631Z,20.46
2019-02-19T09:56:31.296Z,20.46
2019-02-19T10:01:34.024Z,20.47
2019-02-19T10:06:36.692Z,20.44
2019-02-19T10:11:39.353Z,20.44
2019-02-19T10:16:42.241Z,20.43
2019-02-19T10:21:45.759Z,20.44
2019-02-19T10:26:49.695Z,20.43
2019-02-19T10:31:52.468Z,20.41
2019-02-19T10:36:55.135Z,20.42
2019-02-19T10:41:57.793Z,20.42
2019-02-19T10:47:00.471Z,20.38
2019-02-19T10:52:03.144Z,20.38
2019-02-19T10:57:05.839Z,20.43
2019-02-19T11:02:08.496Z,20.45
2019-02-19T11:07:11.164Z,20.47
2019-02-19T11:12:13.829Z,20.47
2019-02-19T11:17:16.491Z,20.49
2019-02-19T11:22:19.172Z,20.52
2019-02-19T11:27:21.839Z,20.57
2019-02-19T11:32:26.283Z,20.63
2019-02-19T11:37:28.788Z,20.66
2019-02-19T11:42:31.452Z,20.69
2019-02-19T11:47:34.119Z,20.69
2019-02-19T11:52:36.775Z,20.69
2019-02-19T11:57:39.428Z,20.74
2019-02-19T12:02:42.124Z,20.79
2019-02-19T12:07:44.791Z,20.87
2019-02-19T12:12:47.460Z,20.88
2019-02-19T12:17:50.131Z,20.88
2019-02-19T12:22:52.780Z,20.87
2019-02-19T12:27:55.430Z,20.87
2019-02-19T12:32:58.072Z,20.92
2019-02-19T12:38:00.729Z,20.92
2019-02-19T12:43:03.385Z,20.93
2019-02-19T12:48:06.069Z,20.90
2019-02-19T12:53:08.744Z,20.87
2019-02-19T12:58:11.419Z,20.82
2019-02-19T13:03:14.088Z,20.83
2019-02-19T13:08:16.847Z,20.83
2019-02-19T13:13:19.522Z,20.87
2019-02-19T13:18:22.224Z,20.85
2019-02-19T13:23:24.869Z,20.81
2019-02-19T13:28:27.528Z,20.83
2019-02-19T13:33:30.212Z,20.82
2019-02-19T13:38:33.764Z,20.83
2019-02-19T13:43:36.434Z,20.83
2019-02-19T13:48:39.093Z,20.84
2019-02-19T13:53:43.400Z,20.85
2019-02-19T13:58:46.068Z,20.93
2019-02-19T14:03:48.736Z,21.11
2019-02-19T14:08:51.448Z,21.39
2019-02-19T14:13:55.700Z,21.75
2019-02-19T14:19:00.000Z,21.53
2019-02-19T14:29:28.078Z,21.54
2019-02-19T14:34:50.520Z,21.18
2019-02-19T14:40:13.337Z,21.14
2019-02-19T14:45:20.616Z,21.07
2019-02-19T14:50:41.420Z,21.06
2019-02-19T14:55:48.452Z,20.96
2019-02-19T15:01:09.316Z,20.96
2019-02-19T15:06:25.694Z,20.92
2019-02-19T15:11:46.587Z,20.94
2019-02-19T15:16:56.712Z,20.91
2019-02-19T15:22:04.047Z,20.92
2019-02-19T15:27:20.184Z,20.95
2019-02-19T15:32:36.785Z,20.97
2019-02-19T15:43:03.736Z,21.02
2019-02-19T15:48:14.020Z,20.98
2019-02-19T15:53:34.573Z,21.01
2019-02-19T15:58:54.025Z,21.03
2019-02-19T16:04:04.209Z,20.99
2019-02-19T16:09:08.445Z,20.92
2019-02-19T16:19:30.063Z,20.84
2019-02-19T16:24:40.057Z,20.81
2019-02-19T16:29:56.848Z,20.79
2019-02-19T16:35:07.401Z,20.81
2019-02-19T16:40:11.745Z,20.76
2019-02-19T16:45:19.044Z,20.74
2019-02-19T16:50:38.388Z,20.75
2019-02-19T16:55:59.004Z,20.77
2019-02-19T17:01:03.361Z,20.71
2019-02-19T17:06:07.639Z,20.75
2019-02-19T17:11:18.127Z,20.77
2019-02-19T17:21:51.429Z,20.75
2019-02-19T17:26:55.708Z,20.73
2019-02-19T17:32:00.024Z,20.72
2019-02-19T17:37:07.063Z,20.71
2019-02-19T17:42:11.380Z,20.71
2019-02-19T17:47:27.853Z,20.70
2019-02-19T17:52:32.161Z,20.70
2019-02-19T17:57:52.769Z,20.72
2019-02-19T18:03:11.884Z,20.71
2019-02-19T18:08:19.318Z,20.71
2019-02-19T18:13:23.621Z,20.71
2019-02-19T18:18:30.879Z,20.67
2019-02-19T18:23:33.548Z,20.69
2019-02-19T18:28:36.270Z,20.62
2019-02-19T18:33:38.903Z,20.63
2019-02-19T18:38:41.572Z,20.59
2019-02-19T18:43:44.269Z,20.60
2019-02-19T18:48:46.944Z,20.59
2019-02-19T18:53:49.598Z,20.58
2019-02-19T18:58:52.269Z,20.61
2019-02-19T19:03:54.937Z,20.61
2019-02-19T19:08:57.611Z,20.59
2019-02-19T19:14:00.264Z,20.56
2019-02-19T19:19:02.902Z,20.52
2019-02-19T19:24:05.595Z,20.51
2019-02-19T19:29:08.247Z,20.53
2019-02-19T19:34:10.914Z,20.50
2019-02-19T19:39:13.588Z,20.49
2019-02-19T19:44:16.276Z,20.50
2019-02-19T19:49:18.937Z,20.47
2019-02-19T19:54:21.649Z,20.45
2019-02-19T19:59:24.308Z,20.41
2019-02-19T20:04:26.965Z,20.45
2019-02-19T20:09:29.609Z,20.40
2019-02-19T20:14:32.574Z,20.41
2019-02-19T20:19:35.262Z,20.38
2019-02-19T20:24:37.944Z,20.39
2019-02-19T20:29:40.583Z,20.36
2019-02-19T20:34:43.268Z,20.35
2019-02-19T20:39:45.980Z,20.37
2019-02-19T20:44:48.640Z,20.42
2019-02-19T20:49:51.294Z,20.36
2019-02-19T20:54:53.950Z,20.38
2019-02-19T20:59:56.604Z,20.32
2019-02-19T21:04:59.275Z,20.30
2019-02-19T21:10:01.925Z,20.28
2019-02-19T21:15:04.966Z,20.27
2019-02-19T21:20:08.592Z,20.26
2019-02-19T21:25:11.321Z,20.24
2019-02-19T21:30:14.773Z,20.42
2019-02-19T21:35:17.461Z,20.30
2019-02-19T21:40:20.152Z,20.26
2019-02-19T21:45:22.817Z,20.22
2019-02-19T21:50:25.476Z,20.25
2019-02-19T21:55:28.148Z,20.22
2019-02-19T22:00:30.820Z,20.21
2019-02-19T22:05:33.483Z,20.18
2019-02-19T22:10:36.153Z,20.18
2019-02-19T22:15:38.819Z,20.15
2019-02-19T22:20:46.114Z,20.17
2019-02-19T22:25:48.789Z,20.15
2019-02-19T22:30:51.465Z,20.14
2019-02-19T22:35:54.147Z,20.15
2019-02-19T22:40:56.807Z,20.11
2019-02-19T22:45:59.513Z,20.09
2019-02-19T22:51:02.176Z,20.11
2019-02-19T22:56:09.453Z,20.09
2019-02-19T23:01:14.237Z,20.08
2019-02-19T23:06:16.949Z,20.07
2019-02-19T23:11:19.615Z,20.06
2019-02-19T23:16:22.380Z,20.03
2019-02-19T23:21:25.075Z,20.01
2019-02-19T23:26:27.751Z,20.01
2019-02-19T23:31:30.408Z,20.01
2019-02-19T23:36:34.722Z,20.01
2019-02-19T23:41:37.433Z,19.99
2019-02-19T23:46:40.113Z,19.98
2019-02-19T23:51:42.758Z,19.99
2019-02-19T23:56:45.426Z,19.98
